world map with HFE marked

HFE - Airport

This information may not be accurate or current and is not valid for navigation or flight planning. No warranty of fitness for any purpose is made or implied.

flag of China

Donate via PayPal

Additional information is available on the NEW Great Circle Mapper

Location
City:  Hefei, Anhui, China
Name:Hefei Xinqiao International Airport
ICAO / IATA:ZSOF / HFE

Details
Type:Airport (Aerodrome, Airfield)
Use:Public/Civil
Latitude:31°59'18"N (31.988333)
Longitude:116°58'35"E (116.976389)
Elevation:207 ft (63 m)
Runways:1
Longest:11155 × 148 ft (3400 × 45 m)

Time
Timezone:UTC+8 (DST+10)
Local Time:

Weather
METAR:ZSOF  041400Z 15002MPS 6000 NSC 06/01 Q1022 NOSIG
TAF:ZSOF  (expired)

Related Locations
Nearby:
Farthest:SAOM: 12366 mi / 19902 km
Marcos Juárez, X, AR

Find:

   beyond  
but within

Other Information
Maps:
Links:
Sources:

  


 


Great Circle Mapper   Great Circle Mapper
Great Circle Mapper FAQ   Great Circle Mapper FAQ
  Karl's Home Page
KLS˛   KLS˛ Home
   GC on Facebook
Airlines of the World   Airlines of the World
Donate via PayPal


Copyright © 2004-2019, Karl L. Swartz. All rights reserved.
All trademarks mentioned herein belong to their respective owners.

Please see credits for attribution and copyright information.

Karl Swartz <karl@kls2.com>
  Powered by FreeBSD
Valid HTML 4.01!
Labeled with ICRA
hCard Microformat
Geo Microformat